createdAt,value
2022-09-03T06:36:08.520Z,18.60
2022-09-03T06:38:37.197Z,18.70
2022-09-03T06:41:17.259Z,18.80
2022-09-03T06:43:46.361Z,18.80
2022-09-03T06:46:15.718Z,18.80
2022-09-03T06:48:43.278Z,18.80
2022-09-03T06:51:14.772Z,18.80
2022-09-03T06:53:52.594Z,18.80
2022-09-03T06:56:26.426Z,18.90
2022-09-03T06:58:55.340Z,18.90
2022-09-03T07:01:27.004Z,18.90
2022-09-03T07:03:56.509Z,18.90
2022-09-03T07:06:25.707Z,18.90
2022-09-03T07:08:52.659Z,18.90
2022-09-03T07:11:23.361Z,18.90
2022-09-03T07:13:55.814Z,18.90
2022-09-03T07:16:25.412Z,18.90
2022-09-03T07:18:54.606Z,18.80
2022-09-03T07:21:26.060Z,18.80
2022-09-03T07:23:54.786Z,18.70
2022-09-03T08:28:40.687Z,16.30
2022-09-03T08:31:20.063Z,16.30
2022-09-03T08:33:52.355Z,16.30
2022-09-03T08:36:30.012Z,16.40
2022-09-03T08:38:59.385Z,16.50
2022-09-03T08:41:51.061Z,16.50
2022-09-03T08:44:43.059Z,16.60
2022-09-03T08:47:41.339Z,16.60
2022-09-03T08:50:25.148Z,16.70
2022-09-03T08:58:22.329Z,17.10
2022-09-03T09:01:11.431Z,17.20
2022-09-03T09:03:57.029Z,17.40
2022-09-03T09:06:26.743Z,17.30
2022-09-03T09:09:05.694Z,17.40
2022-09-03T09:11:59.155Z,17.50
2022-09-03T09:14:31.888Z,17.60
2022-09-03T09:20:18.796Z,18.00
2022-09-03T09:22:52.395Z,18.00
2022-09-03T09:25:22.168Z,18.00
2022-09-03T09:27:55.019Z,18.00
2022-09-03T09:30:21.893Z,18.40
2022-09-03T09:32:53.003Z,18.60
2022-09-03T09:40:35.969Z,19.00
2022-09-03T09:43:16.417Z,18.90
2022-09-03T09:45:53.963Z,18.80
2022-09-03T09:48:29.952Z,18.70
2022-09-03T09:51:06.251Z,18.70
2022-09-03T09:53:33.284Z,18.70
2022-09-03T09:56:00.502Z,18.70
2022-09-03T09:58:30.911Z,18.70
2022-09-03T10:01:00.619Z,18.80
2022-09-03T10:03:29.760Z,18.90
2022-09-03T10:06:28.189Z,19.00
2022-09-03T10:09:09.032Z,19.00
2022-09-03T10:11:39.770Z,18.90
2022-09-03T10:14:33.418Z,18.90
2022-09-03T10:17:37.114Z,18.80
2022-09-03T10:20:32.342Z,18.70
2022-09-03T10:23:05.270Z,18.80
2022-09-03T10:25:53.560Z,18.80
2022-09-03T10:28:25.573Z,18.80
2022-09-03T10:31:24.992Z,18.80
2022-09-03T10:33:59.391Z,19.00
2022-09-03T10:36:38.887Z,19.00
2022-09-03T10:39:10.779Z,19.20
2022-09-03T10:42:04.179Z,19.30
2022-09-03T10:47:19.728Z,19.60
2022-09-03T10:50:17.083Z,19.70
2022-09-03T10:53:26.161Z,19.70
2022-09-03T10:56:12.887Z,19.70
2022-09-03T10:58:48.307Z,19.70
2022-09-03T11:01:23.428Z,19.70
2022-09-03T11:07:13.010Z,19.60
2022-09-03T11:10:11.569Z,19.80
2022-09-03T11:13:05.094Z,19.90
2022-09-03T11:15:34.042Z,20.10
2022-09-03T11:18:33.872Z,20.30
2022-09-03T11:21:11.461Z,20.50
2022-09-03T11:23:43.583Z,20.60
2022-09-03T11:26:13.322Z,20.90
2022-09-03T11:44:51.060Z,21.90
2022-09-03T11:47:21.629Z,22.00
2022-09-03T11:49:53.828Z,22.00
2022-09-03T12:07:47.990Z,22.50
2022-09-03T12:10:38.993Z,22.40
2022-09-03T12:13:24.431Z,22.20
2022-09-03T12:16:15.962Z,22.30
2022-09-03T12:18:43.708Z,22.30
2022-09-03T12:21:11.673Z,22.40
2022-09-03T12:23:47.768Z,22.50
2022-09-03T12:31:39.035Z,22.90
2022-09-03T12:34:15.109Z,22.90
2022-09-03T12:36:44.166Z,22.90
2022-09-03T12:42:25.943Z,22.80
2022-09-03T12:44:56.027Z,22.80
2022-09-03T12:50:20.270Z,23.20
2022-09-03T12:52:56.357Z,23.20
2022-09-03T12:58:09.289Z,23.60
2022-09-03T13:03:39.899Z,23.90
2022-09-03T13:06:10.612Z,24.00
2022-09-03T13:08:56.818Z,24.00
2022-09-03T13:11:24.610Z,24.00
2022-09-03T13:14:12.489Z,24.40
2022-09-03T13:16:47.707Z,24.40
2022-09-03T13:22:01.955Z,24.40
2022-09-03T13:25:06.147Z,24.50
2022-09-03T13:27:52.685Z,24.60
2022-09-03T13:30:31.251Z,24.30
2022-09-03T13:33:35.801Z,24.40
2022-09-03T13:36:09.828Z,24.50
2022-09-03T13:38:51.451Z,24.50
2022-09-03T13:42:06.076Z,24.50
2022-09-03T13:44:41.034Z,24.50
2022-09-03T13:48:04.533Z,24.60
2022-09-03T13:50:44.142Z,25.00
2022-09-03T13:53:50.507Z,25.00
2022-09-03T13:56:58.274Z,25.00
2022-09-03T13:59:46.592Z,25.10
2022-09-03T14:02:52.051Z,25.10
2022-09-03T14:05:40.655Z,25.40
2022-09-03T14:11:23.185Z,26.00
2022-09-03T14:14:25.550Z,26.20
2022-09-03T14:17:02.186Z,26.50
2022-09-03T14:19:43.175Z,27.30
2022-09-03T14:22:24.625Z,27.30
2022-09-03T14:25:09.091Z,27.20
2022-09-03T14:27:36.635Z,27.40
2022-09-03T14:30:26.589Z,27.60
2022-09-03T14:33:20.757Z,27.70
2022-09-03T14:35:58.931Z,28.30
2022-09-03T14:38:56.002Z,28.80
2022-09-03T14:44:32.555Z,29.00
2022-09-03T14:47:20.557Z,29.20
2022-09-03T14:49:53.415Z,29.20
2022-09-03T14:52:50.878Z,29.20
2022-09-03T14:55:50.816Z,27.60
2022-09-03T14:58:24.352Z,26.90
2022-09-03T15:01:11.400Z,26.60
2022-09-03T15:04:00.091Z,26.10
2022-09-03T15:06:35.076Z,25.80
2022-09-03T15:09:13.943Z,25.60
2022-09-03T15:11:55.773Z,25.40
2022-09-03T15:14:44.251Z,25.30
2022-09-03T15:17:17.274Z,25.10
2022-09-03T15:19:56.046Z,25.10
2022-09-03T15:22:54.184Z,25.10
2022-09-03T15:26:01.931Z,25.00
2022-09-03T15:28:47.275Z,25.00
2022-09-03T15:31:34.129Z,25.00
2022-09-03T15:34:33.083Z,24.90
2022-09-03T15:37:07.229Z,24.90
2022-09-03T15:39:38.878Z,24.90
2022-09-03T15:42:17.275Z,24.50
2022-09-03T15:44:49.978Z,23.90
2022-09-03T15:47:51.668Z,23.70
2022-09-03T15:50:50.404Z,23.40
2022-09-03T15:56:24.849Z,23.00
2022-09-03T15:59:06.617Z,22.80
2022-09-03T16:01:33.567Z,22.70
2022-09-03T16:04:22.224Z,22.70
2022-09-03T16:07:00.587Z,22.60
2022-09-03T16:12:40.508Z,21.70
2022-09-03T16:18:01.574Z,21.00
2022-09-03T16:20:31.344Z,20.80
2022-09-03T16:23:13.274Z,20.60
2022-09-03T16:25:50.668Z,20.50
2022-09-03T16:28:31.930Z,20.40
2022-09-03T16:31:04.058Z,20.30
2022-09-03T16:36:39.721Z,20.00
2022-09-03T16:39:09.483Z,20.00
2022-09-03T16:41:48.962Z,19.90
2022-09-03T16:44:19.818Z,19.80
2022-09-03T16:47:05.307Z,19.80
2022-09-03T16:49:50.715Z,19.70
2022-09-03T16:52:38.617Z,19.60
2022-09-03T16:57:59.602Z,19.40
2022-09-03T17:01:01.746Z,19.40
2022-09-03T17:03:54.760Z,19.40
2022-09-03T17:06:27.887Z,19.40
2022-09-03T17:09:09.626Z,19.40
2022-09-03T17:12:02.095Z,19.40
2022-09-03T17:15:00.652Z,19.40
2022-09-03T17:17:42.818Z,19.40
2022-09-03T17:20:12.327Z,19.30
2022-09-03T17:23:06.578Z,19.30
2022-09-03T17:26:11.449Z,19.20
2022-09-03T17:28:46.468Z,19.30
2022-09-03T17:31:24.434Z,19.30
2022-09-03T17:34:09.841Z,19.40
2022-09-03T17:37:01.767Z,19.30
2022-09-03T17:39:50.115Z,19.30
2022-09-03T17:42:25.573Z,19.30
2022-09-03T17:44:57.348Z,19.30
2022-09-03T17:47:24.008Z,19.20
2022-09-03T17:50:05.458Z,19.20
2022-09-03T17:52:37.243Z,19.10
2022-09-03T17:55:14.064Z,19.10
2022-09-03T17:57:54.042Z,19.10
2022-09-03T18:00:29.644Z,19.10
2022-09-03T18:03:13.560Z,19.10
2022-09-03T18:05:45.997Z,19.10
2022-09-03T18:08:24.732Z,19.10
2022-09-03T18:10:59.321Z,19.00
2022-09-03T18:13:50.233Z,19.00
2022-09-03T18:16:28.727Z,19.00
2022-09-03T18:19:57.288Z,19.00
2022-09-03T18:22:54.942Z,19.00
2022-09-03T18:25:43.001Z,19.00
2022-09-03T18:28:34.510Z,18.90
2022-09-03T18:31:20.080Z,18.90
2022-09-03T18:34:05.345Z,18.90
2022-09-03T18:36:51.065Z,18.90
2022-09-03T18:39:46.872Z,18.80
2022-09-03T18:42:41.371Z,18.80
2022-09-03T18:46:17.626Z,18.70
2022-09-03T18:48:58.823Z,18.70
2022-09-03T18:51:50.652Z,18.70
2022-09-03T18:55:14.510Z,18.70
2022-09-03T18:58:26.165Z,18.70
2022-09-03T19:01:31.951Z,18.60
2022-09-03T19:04:28.600Z,18.50
2022-09-03T19:07:19.694Z,18.50
2022-09-03T19:10:26.252Z,18.50
2022-09-03T19:13:37.485Z,18.50
2022-09-03T19:16:35.729Z,18.50
2022-09-03T19:19:30.465Z,18.50
2022-09-03T19:22:30.702Z,18.50
2022-09-03T19:25:24.435Z,18.50
2022-09-03T19:28:22.030Z,18.50
2022-09-03T19:31:50.243Z,18.50
2022-09-03T19:34:57.309Z,18.50
2022-09-03T19:41:00.482Z,18.50
2022-09-03T19:43:58.216Z,18.40
2022-09-03T19:47:03.638Z,18.40
2022-09-03T19:50:07.550Z,18.50
2022-09-03T19:53:18.745Z,18.50
2022-09-03T20:01:43.876Z,18.40
2022-09-03T20:04:34.782Z,18.40
2022-09-03T20:07:27.775Z,18.40
2022-09-03T20:10:16.541Z,18.40
2022-09-03T20:23:12.877Z,18.40
2022-09-03T20:25:47.916Z,18.40
2022-09-03T20:28:45.992Z,18.40
2022-09-03T20:31:22.044Z,18.40
2022-09-03T20:34:06.418Z,18.30
2022-09-03T20:36:36.180Z,18.30
2022-09-03T20:39:33.682Z,18.30
2022-09-03T20:42:18.468Z,18.30
2022-09-03T20:45:06.457Z,18.30
2022-09-03T20:47:49.116Z,18.30
2022-09-03T20:50:43.180Z,18.20
2022-09-03T20:53:25.018Z,18.20
2022-09-03T20:56:01.321Z,18.20
2022-09-03T20:58:37.576Z,18.20
2022-09-03T21:01:10.208Z,18.20
2022-09-03T21:03:55.594Z,18.20
2022-09-03T21:06:28.252Z,18.20
2022-09-03T21:09:16.219Z,18.30
2022-09-03T21:12:07.604Z,18.10
2022-09-03T21:15:01.000Z,18.10
2022-09-03T21:17:56.630Z,18.10
2022-09-03T21:20:44.523Z,18.10
2022-09-03T21:23:21.532Z,18.10
2022-09-03T21:26:07.915Z,18.10
2022-09-03T21:29:21.355Z,18.00
2022-09-03T21:32:23.474Z,18.00
2022-09-03T21:35:03.961Z,18.00
2022-09-03T21:37:35.043Z,17.90
2022-09-03T21:40:03.470Z,17.90
2022-09-03T21:42:52.252Z,17.90
2022-09-03T21:45:54.775Z,17.90
2022-09-03T21:48:38.417Z,17.80
2022-09-03T21:51:14.316Z,17.80
2022-09-03T21:53:52.505Z,17.80
2022-09-03T21:56:19.198Z,17.80
2022-09-03T21:59:26.323Z,17.80
2022-09-03T22:02:03.257Z,17.80
2022-09-03T22:04:32.772Z,17.80
2022-09-03T22:07:08.080Z,17.80
2022-09-03T22:09:50.475Z,17.80
2022-09-03T22:12:27.226Z,17.80
2022-09-03T22:14:56.837Z,17.80
2022-09-03T22:17:30.658Z,17.70
2022-09-03T22:19:57.690Z,17.70
2022-09-03T22:22:33.232Z,17.70
2022-09-03T22:25:14.926Z,17.70
2022-09-03T22:27:50.271Z,17.80
2022-09-03T22:30:21.442Z,17.70
2022-09-03T22:32:56.238Z,17.70
2022-09-03T22:35:28.917Z,17.70
2022-09-03T22:38:23.688Z,17.70
2022-09-03T22:41:22.510Z,17.70
2022-09-03T22:44:03.579Z,17.70
2022-09-03T22:46:40.412Z,17.70
2022-09-03T22:49:16.826Z,17.80
2022-09-03T22:52:24.739Z,17.70
2022-09-03T22:55:23.357Z,17.60
2022-09-03T22:58:23.071Z,17.50
2022-09-03T23:01:01.742Z,17.60
2022-09-03T23:03:47.276Z,17.60
2022-09-03T23:06:32.401Z,17.60
2022-09-03T23:09:09.134Z,17.60
2022-09-03T23:11:39.568Z,17.60
2022-09-03T23:14:12.314Z,17.60
2022-09-03T23:16:55.936Z,17.60
2022-09-03T23:19:33.375Z,17.60
2022-09-03T23:22:13.128Z,17.60
2022-09-03T23:24:44.721Z,17.60
2022-09-03T23:27:18.463Z,17.50
2022-09-03T23:29:50.374Z,17.60
2022-09-03T23:32:19.661Z,17.60
2022-09-03T23:34:48.960Z,17.50
2022-09-03T23:37:39.320Z,17.50
2022-09-03T23:40:26.084Z,17.50
2022-09-03T23:43:19.445Z,17.50
2022-09-03T23:46:03.933Z,17.40
2022-09-03T23:48:52.730Z,17.40
2022-09-03T23:51:23.023Z,17.40
2022-09-03T23:56:39.310Z,17.30
